Time;durP1;ratioP1;P1;durP2;ratioP2;P2;SDS_P1;SDS_P2;PMS_P1;PMS_P2;Temp;Humidity;BMP_temperature;BMP_pressure;BME280_temperature;BME280_humidity;BME280_pressure;Samples;Min_cycle;Max_cycle;Signal;HPM_P1;HPM_P2
2023/12/28 00:01:46;;;;;;;9.37;8.03;;;;;;;5.45;62.37;96428.06;4966312;28;20210;-69
2023/12/28 00:04:11;;;;;;;9.33;8.27;;;;;;;5.26;63.05;96433.69;4966471;28;20286;-68
2023/12/28 00:06:37;;;;;;;10.97;9.87;;;;;;;5.20;63.47;96426.03;4966274;28;20264;-68
2023/12/28 00:09:02;;;;;;;10.77;8.73;;;;;;;5.28;62.96;96431.06;4965792;28;20648;-70
2023/12/28 00:11:28;;;;;;;10.90;8.93;;;;;;;5.24;63.33;96422.50;4964666;28;20265;-69
2023/12/28 00:13:53;;;;;;;9.93;8.97;;;;;;;5.27;63.03;96426.75;4966293;28;20233;-69
2023/12/28 00:16:18;;;;;;;9.33;8.10;;;;;;;5.31;62.95;96430.97;4966606;28;20181;-69
2023/12/28 00:18:44;;;;;;;9.83;8.20;;;;;;;4.84;64.65;96438.06;4966231;28;20173;-68
2023/12/28 00:21:09;;;;;;;11.70;8.53;;;;;;;4.84;64.92;96440.66;4965967;28;20289;-69
2023/12/28 00:23:34;;;;;;;10.93;9.30;;;;;;;5.09;64.08;96436.66;4966009;28;20193;-69
2023/12/28 00:26:00;;;;;;;10.90;9.80;;;;;;;5.18;63.96;96442.56;4965817;28;20224;-69
2023/12/28 00:28:26;;;;;;;9.90;8.87;;;;;;;5.24;63.54;96455.44;4965646;28;20239;-69
2023/12/28 00:30:51;;;;;;;10.77;9.17;;;;;;;5.45;62.61;96448.91;4965564;28;20240;-69
2023/12/28 00:33:16;;;;;;;8.70;7.83;;;;;;;5.36;62.64;96454.31;4965936;28;20668;-69
2023/12/28 00:35:42;;;;;;;9.33;8.17;;;;;;;5.40;62.37;96458.56;4965655;28;20186;-69
2023/12/28 00:38:07;;;;;;;8.77;7.87;;;;;;;5.47;62.38;96449.72;4965526;28;20579;-69
2023/12/28 00:40:33;;;;;;;13.47;9.17;;;;;;;5.56;61.95;96446.91;4965806;28;20288;-70
2023/12/28 00:42:58;;;;;;;13.33;8.90;;;;;;;5.48;62.02;96456.63;4965508;28;20196;-69
2023/12/28 00:45:23;;;;;;;11.30;10.10;;;;;;;5.45;62.03;96461.91;4967144;28;20653;-69
2023/12/28 00:47:49;;;;;;;13.20;9.70;;;;;;;5.38;62.63;96457.72;4969696;28;20189;-69
2023/12/28 00:50:15;;;;;;;9.77;7.87;;;;;;;5.33;62.54;96454.38;4969537;28;20177;-69
2023/12/28 00:52:41;;;;;;;10.37;9.27;;;;;;;5.21;62.77;96445.94;4970599;28;20413;-69
2023/12/28 00:55:07;;;;;;;17.60;8.30;;;;;;;5.23;63.08;96448.53;4976900;28;20184;-69
2023/12/28 00:57:33;;;;;;;15.23;9.03;;;;;;;5.12;63.19;96440.94;4982851;28;20413;-69
2023/12/28 00:59:58;;;;;;;11.47;8.57;;;;;;;4.99;63.94;96447.31;4984690;28;20431;-69
2023/12/28 01:02:23;;;;;;;10.97;8.03;;;;;;;4.51;65.09;96457.78;4980548;28;20277;-69
2023/12/28 01:04:49;;;;;;;11.40;8.83;;;;;;;4.55;64.52;96449.91;4970836;28;20209;-69
2023/12/28 01:07:14;;;;;;;9.50;8.50;;;;;;;4.62;65.39;96445.47;4968513;28;20239;-69
2023/12/28 01:09:39;;;;;;;12.37;11.00;;;;;;;4.81;64.32;96457.19;4968635;28;20285;-68
2023/12/28 01:12:06;;;;;;;10.60;9.17;;;;;;;4.99;64.11;96460.31;4968584;28;20166;-68
2023/12/28 01:14:31;;;;;;;8.07;7.27;;;;;;;5.40;62.61;96442.94;4968338;28;20695;-69
2023/12/28 01:16:56;;;;;;;9.97;8.97;;;;;;;5.38;62.22;96439.50;4968529;28;20416;-68
2023/12/28 01:19:23;;;;;;;9.57;8.30;;;;;;;5.42;62.48;96460.22;4968975;28;20174;-67
2023/12/28 01:21:49;;;;;;;9.87;8.23;;;;;;;5.39;62.29;96459.47;4969128;28;20296;-68
2023/12/28 01:24:15;;;;;;;11.03;9.13;;;;;;;5.52;61.61;96446.09;4969258;28;20567;-68
2023/12/28 01:26:40;;;;;;;9.40;8.50;;;;;;;5.58;61.43;96460.75;4970007;28;20501;-69
2023/12/28 01:29:05;;;;;;;9.83;8.40;;;;;;;5.56;61.59;96465.13;4969655;28;20286;-69
2023/12/28 01:31:31;;;;;;;10.07;8.50;;;;;;;5.47;61.24;96465.34;4969885;28;20166;-69
2023/12/28 01:33:56;;;;;;;12.03;8.90;;;;;;;5.28;62.18;96470.09;4970615;28;20269;-70
2023/12/28 01:36:22;;;;;;;10.77;7.60;;;;;;;5.25;62.63;96473.63;4971473;28;20161;-69
2023/12/28 01:38:48;;;;;;;10.70;8.80;;;;;;;5.15;63.09;96472.13;4970877;28;20653;-69
2023/12/28 01:41:15;;;;;;;9.50;8.53;;;;;;;5.18;63.07;96473.78;4967993;28;20967;-69
2023/12/28 01:43:41;;;;;;;14.10;8.47;;;;;;;4.99;63.39;96468.13;4967791;28;20429;-69
2023/12/28 01:46:10;;;;;;;11.97;9.80;;;;;;;4.98;63.89;96469.84;4955595;28;20419;-69
2023/12/28 01:48:36;;;;;;;9.33;8.20;;;;;;;4.69;64.78;96467.00;4948223;28;20441;-69
2023/12/28 01:51:02;;;;;;;9.40;8.37;;;;;;;4.53;65.46;96475.06;4948141;28;20406;-68
2023/12/28 01:53:28;;;;;;;15.47;8.97;;;;;;;4.96;63.92;96473.38;4948550;28;20606;-68
2023/12/28 01:55:54;;;;;;;11.23;9.23;;;;;;;5.15;63.32;96461.72;4948746;28;20418;-70
2023/12/28 01:58:20;;;;;;;9.40;8.50;;;;;;;5.15;63.23;96464.31;4947261;28;20185;-70
2023/12/28 02:00:47;;;;;;;10.60;9.00;;;;;;;5.08;63.44;96463.59;4948158;28;20402;-68
2023/12/28 02:03:12;;;;;;;12.13;9.53;;;;;;;5.22;63.05;96465.88;4955905;28;20852;-69
2023/12/28 02:05:38;;;;;;;11.57;9.00;;;;;;;5.21;62.77;96477.16;4967520;28;20420;-69
2023/12/28 02:08:03;;;;;;;10.67;8.83;;;;;;;5.11;63.18;96475.66;4967197;28;20609;-69
2023/12/28 02:10:29;;;;;;;12.43;8.93;;;;;;;5.27;62.45;96478.81;4967165;28;20675;-69
2023/12/28 02:12:55;;;;;;;8.20;7.33;;;;;;;4.98;63.49;96484.59;4965743;28;20197;-70
2023/12/28 02:15:21;;;;;;;11.50;9.23;;;;;;;5.06;63.58;96482.72;4967333;28;20181;-69
2023/12/28 02:17:51;;;;;;;10.43;9.33;;;;;;;4.99;63.97;96481.97;4967160;28;20416;-68
2023/12/28 02:20:20;;;;;;;9.50;8.23;;;;;;;5.11;63.86;96480.88;4967146;28;20227;-69
2023/12/28 02:22:46;;;;;;;8.67;7.67;;;;;;;5.28;62.69;96462.28;4967364;28;20425;-68
2023/12/28 02:25:12;;;;;;;11.27;9.50;;;;;;;5.32;62.63;96465.69;4967546;28;20884;-68
2023/12/28 02:27:48;;;;;;;11.80;7.67;;;;;;;5.19;62.80;96463.34;4967514;28;20178;-69
2023/12/28 02:30:21;;;;;;;12.70;9.30;;;;;;;5.04;63.50;96481.88;4967459;28;20632;-70
2023/12/28 02:33:22;;;;;;;10.00;9.00;;;;;;;5.00;63.59;96480.22;4967316;28;20441;-69
2023/12/28 02:35:55;;;;;;;12.93;9.33;;;;;;;5.21;63.14;96471.97;4967446;28;20402;-69
2023/12/28 02:38:23;;;;;;;10.07;8.10;;;;;;;5.25;62.81;96476.22;4966652;28;20440;-68
2023/12/28 02:40:49;;;;;;;11.10;8.23;;;;;;;5.23;62.81;96472.78;4966855;28;20506;-69
2023/12/28 02:43:15;;;;;;;10.43;9.00;;;;;;;5.21;62.83;96481.53;4966859;28;20508;-68
2023/12/28 02:45:40;;;;;;;9.87;8.43;;;;;;;5.37;62.45;96476.84;4966636;28;20585;-69
2023/12/28 02:48:06;;;;;;;10.93;8.00;;;;;;;5.34;62.27;96484.69;4966587;28;20265;-68
2023/12/28 02:50:33;;;;;;;10.73;7.93;;;;;;;5.29;62.30;96484.81;4966706;28;20177;-69
2023/12/28 02:52:58;;;;;;;7.87;7.03;;;;;;;5.44;62.06;96492.28;4966643;28;20201;-69
2023/12/28 02:55:24;;;;;;;12.23;8.30;;;;;;;5.40;61.80;96484.59;4966857;28;20424;-69
2023/12/28 02:57:51;;;;;;;8.90;8.00;;;;;;;5.34;62.39;96489.91;4966675;28;20170;-69
2023/12/28 03:00:16;;;;;;;10.73;9.63;;;;;;;5.30;62.18;96489.13;4966676;28;20304;-69
2023/12/28 03:02:42;;;;;;;11.47;9.40;;;;;;;5.21;62.57;96486.72;4966856;28;20555;-69
2023/12/28 03:05:08;;;;;;;11.30;7.83;;;;;;;5.26;62.29;96488.31;4966910;28;20181;-67
2023/12/28 03:07:34;;;;;;;11.60;8.93;;;;;;;5.28;62.32;96486.56;4966330;28;20800;-69
2023/12/28 03:09:59;;;;;;;12.27;9.47;;;;;;;5.33;61.91;96483.84;4966527;28;20543;-68
2023/12/28 03:12:25;;;;;;;12.17;8.50;;;;;;;5.24;62.57;96486.66;4965218;28;20422;-69
2023/12/28 03:14:51;;;;;;;9.77;8.87;;;;;;;5.25;62.54;96483.19;4966507;28;20189;-70
2023/12/28 03:17:16;;;;;;;9.47;8.13;;;;;;;5.19;62.31;96472.88;4966078;28;20177;-69
2023/12/28 03:19:42;;;;;;;9.53;8.43;;;;;;;5.26;62.21;96488.31;4966100;28;20170;-68
2023/12/28 03:22:07;;;;;;;9.60;8.13;;;;;;;5.17;62.64;96490.28;4966524;28;20208;-69
2023/12/28 03:24:32;;;;;;;9.27;8.37;;;;;;;5.33;62.49;96480.41;4966393;28;20205;-69
2023/12/28 03:26:58;;;;;;;9.50;8.40;;;;;;;5.12;62.68;96494.72;4965995;28;20175;-68
2023/12/28 03:29:24;;;;;;;9.17;8.23;;;;;;;5.16;62.61;96486.81;4966012;28;20543;-69
2023/12/28 03:31:49;;;;;;;10.30;8.17;;;;;;;5.02;62.33;96486.25;4964659;28;20170;-69
2023/12/28 03:34:15;;;;;;;11.13;8.47;;;;;;;4.87;63.41;96479.63;4966501;28;20452;-69
2023/12/28 03:36:40;;;;;;;11.90;8.00;;;;;;;5.07;62.69;96492.22;4966526;28;20242;-68
2023/12/28 03:39:06;;;;;;;10.87;8.47;;;;;;;5.11;62.37;96487.81;4964751;28;20184;-69
2023/12/28 03:41:31;;;;;;;10.13;8.13;;;;;;;5.04;62.56;96477.53;4966175;28;20205;-68
2023/12/28 03:43:57;;;;;;;14.90;8.53;;;;;;;5.14;62.44;96488.59;4966167;28;20196;-69
2023/12/28 03:46:23;;;;;;;11.30;10.10;;;;;;;4.66;63.58;96486.97;4966066;28;20260;-69
2023/12/28 03:48:48;;;;;;;10.20;8.60;;;;;;;4.67;63.39;96490.41;4965916;28;20797;-69
2023/12/28 03:51:17;;;;;;;8.97;7.13;;;;;;;4.92;63.04;96477.78;4966264;28;20189;-69
2023/12/28 03:53:43;;;;;;;9.77;8.33;;;;;;;4.83;62.69;96476.22;4965751;28;20198;-69
2023/12/28 03:56:21;;;;;;;10.20;8.50;;;;;;;5.06;62.52;96482.72;4966043;28;20416;-69
2023/12/28 03:58:46;;;;;;;7.87;7.07;;;;;;;5.07;62.14;96484.41;4965712;28;20185;-69
2023/12/28 04:01:12;;;;;;;8.87;7.97;;;;;;;4.90;62.70;96476.09;4965493;28;20461;-69
2023/12/28 04:03:37;;;;;;;11.53;8.57;;;;;;;4.74;63.25;96480.75;4966249;28;20208;-68
2023/12/28 04:06:03;;;;;;;8.97;8.03;;;;;;;5.00;62.65;96480.22;4966001;28;20205;-68
2023/12/28 04:08:28;;;;;;;8.77;7.87;;;;;;;5.06;62.43;96482.72;4966159;28;20645;-69
2023/12/28 04:10:53;;;;;;;10.53;7.30;;;;;;;5.10;62.14;96481.72;4966239;28;20215;-69
2023/12/28 04:13:19;;;;;;;11.60;8.30;;;;;;;4.87;63.22;96470.09;4966062;28;20197;-69
2023/12/28 04:15:44;;;;;;;9.03;8.00;;;;;;;4.54;63.79;96470.75;4966095;28;20598;-69
2023/12/28 04:18:09;;;;;;;10.13;8.90;;;;;;;4.72;63.22;96467.78;4965757;28;20205;-69
2023/12/28 04:20:35;;;;;;;12.20;8.70;;;;;;;4.76;63.16;96468.59;4967044;28;20208;-69
2023/12/28 04:23:00;;;;;;;10.70;9.03;;;;;;;4.83;63.11;96470.16;4969365;28;20278;-69
2023/12/28 04:25:26;;;;;;;11.00;8.03;;;;;;;4.82;63.67;96469.31;4969565;28;20173;-69
2023/12/28 04:27:51;;;;;;;15.73;8.50;;;;;;;4.99;62.68;96462.91;4969033;28;20185;-70
2023/12/28 04:30:16;;;;;;;11.53;8.53;;;;;;;4.88;62.69;96460.53;4969048;28;20256;-67
2023/12/28 04:32:42;;;;;;;8.53;7.40;;;;;;;4.65;63.94;96463.59;4968804;28;20560;-69
2023/12/28 04:35:07;;;;;;;9.53;8.03;;;;;;;4.89;63.02;96470.06;4969026;28;20721;-69
2023/12/28 04:37:32;;;;;;;9.97;7.67;;;;;;;4.79;63.28;96465.91;4968573;28;20587;-69
2023/12/28 04:39:58;;;;;;;10.30;8.57;;;;;;;4.50;64.40;96471.69;4968733;28;20169;-68
2023/12/28 04:42:23;;;;;;;9.77;8.77;;;;;;;4.34;64.88;96482.34;4969314;28;20205;-68
2023/12/28 04:44:49;;;;;;;9.37;8.30;;;;;;;4.74;63.94;96476.41;4969591;28;20255;-68
2023/12/28 04:47:14;;;;;;;8.30;7.43;;;;;;;4.75;63.82;96474.66;4969784;28;20170;-69
2023/12/28 04:49:40;;;;;;;9.40;8.50;;;;;;;4.30;65.35;96477.22;4969939;28;20184;-69
2023/12/28 04:52:05;;;;;;;11.67;8.10;;;;;;;4.48;64.51;96486.44;4970542;28;20184;-69
2023/12/28 04:54:32;;;;;;;9.07;8.00;;;;;;;4.64;63.98;96495.66;4969709;28;20185;-68
2023/12/28 04:56:58;;;;;;;10.43;8.30;;;;;;;4.55;64.94;96501.03;4971888;28;20192;-69
2023/12/28 04:59:23;;;;;;;10.13;7.40;;;;;;;4.40;64.60;96502.19;4973629;28;20826;-69
2023/12/28 05:01:48;;;;;;;13.20;7.60;;;;;;;4.49;64.90;96496.81;4973421;28;20198;-68
2023/12/28 05:04:14;;;;;;;9.20;8.00;;;;;;;4.14;65.62;96500.91;4972318;28;20367;-70
2023/12/28 05:06:39;;;;;;;9.17;7.80;;;;;;;3.97;66.07;96500.34;4972101;28;20169;-68
2023/12/28 05:09:05;;;;;;;7.63;6.20;;;;;;;4.21;65.72;96505.09;4977131;28;20202;-69
2023/12/28 05:11:30;;;;;;;9.40;7.30;;;;;;;4.50;65.02;96484.69;4969441;28;20173;-69
2023/12/28 05:13:56;;;;;;;14.13;8.37;;;;;;;4.65;63.93;96495.66;4968611;28;20427;-69
2023/12/28 05:16:22;;;;;;;9.47;7.87;;;;;;;4.73;63.57;96490.31;4968863;28;20170;-68
2023/12/28 05:18:47;;;;;;;8.57;7.63;;;;;;;4.72;63.61;96491.16;4968521;28;20178;-70
2023/12/28 05:21:13;;;;;;;11.70;7.83;;;;;;;4.70;63.74;96492.97;4968152;28;20253;-69
2023/12/28 05:23:39;;;;;;;9.00;7.50;;;;;;;4.73;63.47;96492.91;4968823;28;20970;-69
2023/12/28 05:26:04;;;;;;;9.27;7.40;;;;;;;4.81;63.31;96487.53;4972892;28;20429;-69
2023/12/28 05:28:30;;;;;;;10.70;8.33;;;;;;;4.71;63.83;96486.03;4976091;28;20181;-69
2023/12/28 05:30:55;;;;;;;10.00;8.03;;;;;;;4.73;63.54;96471.25;4968880;28;20649;-69
2023/12/28 05:33:21;;;;;;;9.50;7.33;;;;;;;4.60;63.87;96476.66;4968565;28;20279;-69
2023/12/28 05:35:46;;;;;;;8.90;7.73;;;;;;;4.82;63.08;96486.69;4968665;28;20547;-67
2023/12/28 05:38:11;;;;;;;14.33;8.67;;;;;;;4.70;63.41;96482.56;4968203;28;20185;-68
2023/12/28 05:40:37;;;;;;;8.63;7.70;;;;;;;4.78;63.81;96472.88;4967998;28;20216;-67
2023/12/28 05:43:03;;;;;;;10.50;7.50;;;;;;;4.70;64.16;96494.69;4968249;28;20204;-69
2023/12/28 05:45:28;;;;;;;11.60;9.30;;;;;;;4.74;63.47;96498.94;4966603;28;20173;-68
2023/12/28 05:47:54;;;;;;;12.93;7.83;;;;;;;4.51;64.60;96496.78;4968242;28;20931;-69
2023/12/28 05:50:19;;;;;;;12.37;7.40;;;;;;;4.54;64.27;96491.53;4967925;28;20180;-68
2023/12/28 05:52:44;;;;;;;8.73;7.83;;;;;;;4.65;64.04;96497.38;4967968;28;20922;-69
2023/12/28 05:55:10;;;;;;;8.70;7.30;;;;;;;4.42;64.59;96508.22;4967721;28;20174;-68
2023/12/28 05:57:35;;;;;;;9.80;8.30;;;;;;;4.45;64.82;96503.81;4965901;28;20300;-69
2023/12/28 06:00:01;;;;;;;9.00;8.10;;;;;;;4.19;65.05;96506.00;4967480;28;20666;-69
2023/12/28 06:02:26;;;;;;;14.20;7.97;;;;;;;4.42;64.73;96506.47;4967480;28;20562;-68
2023/12/28 06:04:51;;;;;;;9.07;7.90;;;;;;;4.54;64.62;96505.38;4967635;28;20212;-69
2023/12/28 06:07:17;;;;;;;11.40;8.13;;;;;;;4.42;65.06;96497.81;4967602;28;20645;-68
2023/12/28 06:09:42;;;;;;;8.50;7.70;;;;;;;4.32;64.76;96510.09;4968111;28;20185;-69
2023/12/28 06:12:07;;;;;;;11.00;8.17;;;;;;;4.59;63.46;96495.75;4968574;28;20170;-67
2023/12/28 06:14:33;;;;;;;8.60;7.70;;;;;;;3.96;66.22;96490.81;4972383;28;20224;-68
2023/12/28 06:16:58;;;;;;;8.97;7.90;;;;;;;4.26;65.09;96483.38;4974787;28;20174;-68
2023/12/28 06:19:24;;;;;;;10.00;8.30;;;;;;;4.01;65.63;96494.19;4971256;28;20184;-67
2023/12/28 06:21:49;;;;;;;7.83;6.97;;;;;;;4.10;65.78;96517.41;4976096;28;20223;-70
2023/12/28 06:24:15;;;;;;;19.80;7.87;;;;;;;4.43;64.58;96525.50;4981623;28;20840;-69
2023/12/28 06:26:44;;;;;;;7.53;6.43;;;;;;;4.36;65.08;96529.09;4976747;28;20185;-69
2023/12/28 06:29:10;;;;;;;8.80;7.40;;;;;;;4.31;65.15;96534.38;4980874;28;20202;-70
2023/12/28 06:31:36;;;;;;;9.63;7.70;;;;;;;4.35;64.74;96540.38;4980071;28;20409;-69
2023/12/28 06:34:07;;;;;;;9.50;7.13;;;;;;;4.43;65.12;96549.75;4970300;28;20727;-68
2023/12/28 06:36:34;;;;;;;15.00;9.30;;;;;;;4.64;64.27;96545.91;4967275;28;20469;-69
2023/12/28 06:38:59;;;;;;;12.30;8.17;;;;;;;4.64;64.18;96538.09;4966997;28;20493;-68
2023/12/28 06:41:25;;;;;;;13.67;9.00;;;;;;;4.74;63.91;96543.16;4966867;28;20460;-69
2023/12/28 06:43:51;;;;;;;7.37;6.53;;;;;;;4.76;64.05;96544.81;4966730;28;20571;-69
2023/12/28 06:46:17;;;;;;;11.60;7.27;;;;;;;4.84;63.59;96532.56;4967208;28;20417;-69
2023/12/28 06:48:43;;;;;;;8.80;6.73;;;;;;;4.61;63.81;96514.78;4967249;28;20186;-69
2023/12/28 06:51:09;;;;;;;9.10;7.27;;;;;;;4.75;63.58;96517.13;4967386;28;20421;-69
2023/12/28 06:53:35;;;;;;;10.73;7.97;;;;;;;4.03;66.23;96523.59;4967388;28;20201;-69
2023/12/28 06:56:00;;;;;;;9.93;7.80;;;;;;;4.16;65.89;96529.44;4967885;28;20957;-69
2023/12/28 06:58:25;;;;;;;9.30;7.60;;;;;;;4.34;65.18;96530.84;4967069;28;20182;-69
2023/12/28 07:00:51;;;;;;;16.23;7.40;;;;;;;4.51;64.94;96533.16;4967380;28;20205;-69
2023/12/28 07:03:17;;;;;;;8.77;7.83;;;;;;;4.66;63.74;96525.09;4967843;28;20197;-68
2023/12/28 07:05:42;;;;;;;8.87;7.07;;;;;;;4.60;64.45;96533.00;4968021;28;20637;-69
2023/12/28 07:08:08;;;;;;;9.90;7.27;;;;;;;4.61;63.93;96545.97;4967825;28;20182;-70
2023/12/28 07:10:33;;;;;;;7.70;6.93;;;;;;;4.45;64.58;96532.38;4966346;28;20166;-69
2023/12/28 07:12:59;;;;;;;10.00;7.30;;;;;;;4.56;64.56;96549.53;4967913;28;20445;-69
2023/12/28 07:15:25;;;;;;;10.83;7.53;;;;;;;4.51;64.43;96548.75;4968194;28;20220;-71
2023/12/28 07:17:50;;;;;;;10.57;7.67;;;;;;;4.68;64.21;96554.53;4966853;28;20300;-69
2023/12/28 07:20:15;;;;;;;8.33;7.53;;;;;;;4.90;63.32;96554.13;4969320;28;20185;-71
2023/12/28 07:22:41;;;;;;;10.13;7.83;;;;;;;5.03;62.66;96550.38;4969369;28;20903;-68
2023/12/28 07:25:07;;;;;;;8.70;7.80;;;;;;;5.19;62.36;96556.13;4968361;28;20274;-68
2023/12/28 07:27:34;;;;;;;8.40;6.77;;;;;;;5.45;61.56;96545.19;4967363;28;20193;-69
2023/12/28 07:30:00;;;;;;;8.77;7.27;;;;;;;6.46;59.50;96528.97;4966734;28;20421;-69
2023/12/28 07:32:25;;;;;;;11.10;8.13;;;;;;;7.35;55.76;96531.78;4966761;28;20542;-68
2023/12/28 07:34:55;;;;;;;13.40;8.00;;;;;;;8.09;53.53;96532.16;4966473;28;20548;-68
2023/12/28 07:37:20;;;;;;;8.00;7.20;;;;;;;8.77;51.96;96531.63;4965825;28;20224;-69
2023/12/28 07:39:47;;;;;;;9.53;7.70;;;;;;;9.36;49.36;96532.19;4966086;28;20516;-69
2023/12/28 07:42:12;;;;;;;11.40;7.60;;;;;;;9.72;48.45;96533.41;4966189;28;20894;-70
2023/12/28 07:44:39;;;;;;;9.27;8.30;;;;;;;10.15;47.71;96533.47;4966185;28;20448;-69
2023/12/28 07:47:04;;;;;;;11.50;8.57;;;;;;;10.63;46.41;96528.94;4966291;28;20255;-69
2023/12/28 07:49:31;;;;;;;9.70;8.70;;;;;;;10.79;46.42;96530.88;4966148;28;20405;-69
2023/12/28 07:51:56;;;;;;;9.00;8.10;;;;;;;11.38;44.50;96513.38;4966537;28;20845;-68
2023/12/28 07:54:22;;;;;;;9.57;8.70;;;;;;;10.56;45.49;96510.00;4965472;28;20476;-69
2023/12/28 07:56:47;;;;;;;14.40;7.90;;;;;;;9.28;48.66;96515.00;4965716;28;20541;-69
2023/12/28 07:59:12;;;;;;;9.70;8.53;;;;;;;8.50;51.50;96520.34;4966504;28;20177;-69
2023/12/28 08:01:38;;;;;;;13.00;8.43;;;;;;;8.14;52.67;96525.84;4967207;28;20197;-70
2023/12/28 08:04:03;;;;;;;12.53;7.80;;;;;;;7.76;53.50;96522.69;4967469;28;20352;-69
2023/12/28 08:06:32;;;;;;;9.10;8.20;;;;;;;7.45;54.55;96527.13;4967031;28;20715;-69
2023/12/28 08:08:59;;;;;;;9.83;8.47;;;;;;;7.34;55.39;96530.91;4966641;28;20184;-69
2023/12/28 08:11:24;;;;;;;9.23;8.40;;;;;;;7.20;55.41;96533.06;4966827;28;20470;-69
2023/12/28 08:13:50;;;;;;;10.17;9.17;;;;;;;7.10;56.10;96552.50;4968855;28;20440;-69
2023/12/28 08:16:15;;;;;;;10.70;9.20;;;;;;;7.12;56.41;96554.16;4966541;28;20178;-68
2023/12/28 08:18:40;;;;;;;11.10;9.30;;;;;;;7.05;56.82;96543.94;4966815;28;20634;-69
2023/12/28 08:21:06;;;;;;;8.07;7.27;;;;;;;7.09;57.01;96541.19;4966879;28;20206;-69
2023/12/28 08:23:31;;;;;;;9.83;8.50;;;;;;;7.11;56.34;96534.19;4968294;28;20198;-69
2023/12/28 08:25:57;;;;;;;10.07;8.47;;;;;;;6.94;56.99;96532.03;4975355;28;20215;-69
2023/12/28 08:28:23;;;;;;;7.83;7.03;;;;;;;7.03;57.27;96530.06;4969819;28;20181;-69
2023/12/28 08:30:48;;;;;;;12.90;7.47;;;;;;;7.07;57.09;96540.38;4969941;28;20169;-69
2023/12/28 08:33:15;;;;;;;14.33;8.50;;;;;;;6.97;57.19;96542.41;4969949;28;20468;-69
2023/12/28 08:35:40;;;;;;;12.93;7.77;;;;;;;6.99;57.45;96555.38;4970160;28;20177;-69
2023/12/28 08:38:06;;;;;;;13.70;7.70;;;;;;;7.04;57.61;96550.03;4970447;28;20427;-69
2023/12/28 08:40:32;;;;;;;9.33;8.10;;;;;;;6.90;57.72;96548.69;4968963;28;20656;-70
2023/12/28 08:42:57;;;;;;;10.90;7.43;;;;;;;6.64;58.41;96553.69;4968789;28;20593;-69
2023/12/28 08:45:23;;;;;;;8.00;7.20;;;;;;;6.85;58.24;96536.63;4965758;28;20209;-69
2023/12/28 08:47:48;;;;;;;14.07;8.17;;;;;;;6.91;57.86;96536.47;4966231;28;20166;-70
2023/12/28 08:50:14;;;;;;;9.03;8.10;;;;;;;7.09;57.62;96537.75;4965862;28;20177;-69
2023/12/28 08:52:40;;;;;;;9.50;8.00;;;;;;;7.18;57.63;96543.56;4966169;28;20173;-68
2023/12/28 08:55:06;;;;;;;8.63;7.70;;;;;;;7.00;57.44;96541.44;4966470;28;20177;-68
2023/12/28 08:57:31;;;;;;;8.73;7.83;;;;;;;6.81;57.51;96535.03;4966584;28;20181;-69
2023/12/28 08:59:57;;;;;;;8.27;7.17;;;;;;;6.96;57.33;96532.00;4965825;28;20205;-68
2023/12/28 09:02:23;;;;;;;7.23;6.37;;;;;;;6.91;57.66;96539.94;4967307;28;20213;-68
2023/12/28 09:04:48;;;;;;;25.97;7.83;;;;;;;6.98;57.60;96551.91;4966551;28;20799;-69
2023/12/28 09:07:14;;;;;;;14.07;9.43;;;;;;;7.02;57.48;96549.25;4966033;28;20196;-68
2023/12/28 09:09:39;;;;;;;10.17;7.77;;;;;;;6.72;58.04;96544.78;4968646;28;20180;-69
2023/12/28 09:12:05;;;;;;;55.30;11.63;;;;;;;6.83;57.89;96552.34;4968725;28;20173;-69
2023/12/28 09:14:30;;;;;;;17.03;7.37;;;;;;;6.78;58.12;96549.00;4967626;28;20205;-68
2023/12/28 09:16:56;;;;;;;16.43;7.50;;;;;;;7.10;56.82;96547.28;4967826;28;20185;-69
2023/12/28 09:19:22;;;;;;;10.17;7.37;;;;;;;7.20;56.42;96549.59;4967711;28;20212;-69
2023/12/28 09:21:48;;;;;;;12.57;7.17;;;;;;;7.30;56.02;96558.00;4967791;28;20492;-69
2023/12/28 09:24:15;;;;;;;8.63;6.73;;;;;;;7.29;56.17;96561.50;4967332;28;20199;-69
2023/12/28 09:26:41;;;;;;;12.57;6.87;;;;;;;7.15;56.49;96566.25;4967387;28;20178;-71
2023/12/28 09:29:06;;;;;;;9.00;7.07;;;;;;;6.95;56.36;96564.22;4967320;28;20935;-69
2023/12/28 09:31:31;;;;;;;11.20;6.87;;;;;;;7.07;56.76;96561.25;4967028;28;20174;-69
2023/12/28 09:33:57;;;;;;;6.97;6.27;;;;;;;7.20;56.14;96559.16;4967326;28;20288;-69
2023/12/28 09:36:22;;;;;;;8.97;6.03;;;;;;;7.39;54.97;96557.75;4966897;28;20234;-69
2023/12/28 09:38:48;;;;;;;10.40;7.70;;;;;;;7.42;54.92;96556.81;4966900;28;20185;-69
2023/12/28 09:41:16;;;;;;;7.67;6.30;;;;;;;7.51;54.56;96555.66;4966384;28;20636;-67
2023/12/28 09:43:58;;;;;;;8.17;6.63;;;;;;;7.55;54.43;96544.22;4966867;28;20692;-70
2023/12/28 09:46:23;;;;;;;6.47;5.80;;;;;;;7.50;54.45;96546.13;4966662;28;20526;-69
2023/12/28 09:48:49;;;;;;;6.97;5.00;;;;;;;7.62;54.43;96541.38;4967069;28;20413;-69
2023/12/28 09:51:14;;;;;;;6.40;5.80;;;;;;;7.66;54.54;96531.72;4966851;28;20227;-68
2023/12/28 09:53:40;;;;;;;8.90;6.67;;;;;;;7.81;53.37;96536.47;4966688;28;20197;-69
2023/12/28 09:56:06;;;;;;;8.20;6.80;;;;;;;7.76;54.16;96525.31;4966870;28;20181;-68
2023/12/28 09:58:35;;;;;;;7.57;5.70;;;;;;;7.64;54.64;96533.53;4966730;28;20180;-70
2023/12/28 10:01:01;;;;;;;7.27;5.73;;;;;;;7.64;53.89;96531.75;4966709;28;20467;-70
2023/12/28 10:03:26;;;;;;;9.07;5.93;;;;;;;7.78;53.80;96527.88;4967290;28;20437;-68
2023/12/28 10:05:52;;;;;;;5.80;5.20;;;;;;;7.59;54.66;96533.66;4966804;28;20490;-69
2023/12/28 10:08:17;;;;;;;7.67;6.73;;;;;;;7.47;55.36;96533.19;4966618;28;20182;-69
2023/12/28 10:10:50;;;;;;;6.77;6.07;;;;;;;7.49;55.32;96528.72;4966766;28;20846;-69
2023/12/28 10:13:16;;;;;;;7.13;6.07;;;;;;;7.26;55.68;96532.03;4966481;28;20208;-69
2023/12/28 10:15:43;;;;;;;8.10;6.20;;;;;;;7.27;55.47;96529.38;4966515;28;21194;-69
2023/12/28 10:18:09;;;;;;;7.43;6.03;;;;;;;7.38;55.93;96534.28;4965432;28;20569;-69
2023/12/28 10:20:34;;;;;;;7.33;5.73;;;;;;;7.42;55.28;96538.53;4966189;28;20418;-70
2023/12/28 10:23:00;;;;;;;10.90;6.80;;;;;;;7.61;55.01;96538.84;4968305;28;20194;-72
2023/12/28 10:25:31;;;;;;;6.73;5.80;;;;;;;7.63;54.91;96531.81;4969319;28;20237;-69
2023/12/28 10:27:56;;;;;;;8.40;5.87;;;;;;;7.71;54.55;96531.59;4967951;28;20413;-70
2023/12/28 10:30:22;;;;;;;7.53;6.43;;;;;;;7.64;54.48;96523.06;4970170;28;20493;-68
2023/12/28 10:32:48;;;;;;;20.13;6.87;;;;;;;7.60;55.47;96534.50;4969503;28;20644;-69
2023/12/28 10:35:14;;;;;;;8.03;6.57;;;;;;;7.56;55.02;96531.16;4969787;28;20239;-68
2023/12/28 10:37:43;;;;;;;12.63;7.20;;;;;;;7.57;55.85;96529.38;4967834;28;20185;-71
2023/12/28 10:40:17;;;;;;;16.73;6.40;;;;;;;7.71;55.08;96524.59;4969153;28;20197;-69
2023/12/28 10:42:55;;;;;;;9.57;6.30;;;;;;;7.82;54.71;96517.28;4969355;28;20452;-69
2023/12/28 10:45:23;;;;;;;9.70;6.37;;;;;;;7.93;54.39;96519.53;4969724;28;20979;-68
2023/12/28 10:48:08;;;;;;;10.40;6.50;;;;;;;7.73;55.40;96522.78;4970116;28;20428;-69
2023/12/28 10:50:38;;;;;;;11.20;6.47;;;;;;;7.82;54.55;96532.13;4970117;28;20492;-69
2023/12/28 10:53:28;;;;;;;6.90;5.33;;;;;;;7.74;55.48;96527.09;4970015;28;20492;-69
2023/12/28 10:56:05;;;;;;;8.63;7.63;;;;;;;7.75;54.87;96528.81;4971445;28;20421;-67
2023/12/28 10:58:36;;;;;;;8.90;5.90;;;;;;;7.88;55.33;96529.28;4968846;28;20416;-68
2023/12/28 11:01:04;;;;;;;7.07;6.37;;;;;;;7.94;54.37;96528.25;4968571;28;20464;-68
2023/12/28 11:03:35;;;;;;;7.53;6.73;;;;;;;7.99;55.02;96523.75;4968879;28;20520;-67
2023/12/28 11:06:03;;;;;;;8.90;6.20;;;;;;;7.99;54.81;96521.13;4968956;28;20408;-68
2023/12/28 11:08:33;;;;;;;9.40;5.80;;;;;;;7.99;54.96;96513.28;4968866;28;20466;-71
2023/12/28 11:11:04;;;;;;;8.20;6.30;;;;;;;7.96;55.57;96508.13;4966305;28;20811;-70
2023/12/28 11:13:32;;;;;;;8.83;7.07;;;;;;;7.89;55.43;96507.50;4968024;28;20448;-68
2023/12/28 11:15:59;;;;;;;6.70;5.90;;;;;;;7.73;55.53;96509.72;4965452;28;21170;-69
2023/12/28 11:18:27;;;;;;;9.27;6.53;;;;;;;7.87;56.10;96513.69;4965986;28;20413;-70
2023/12/28 11:20:53;;;;;;;10.17;7.00;;;;;;;8.01;55.25;96511.50;4966451;28;20460;-69
2023/12/28 11:23:19;;;;;;;7.53;6.60;;;;;;;7.89;55.94;96506.63;4966337;28;20433;-69
2023/12/28 11:25:45;;;;;;;8.40;6.60;;;;;;;8.00;55.42;96505.38;4981343;28;20185;-68
2023/12/28 11:28:12;;;;;;;7.13;6.50;;;;;;;8.11;55.19;96496.38;4967108;28;20178;-69
2023/12/28 11:30:43;;;;;;;23.80;7.50;;;;;;;8.18;54.70;96503.09;4966310;28;20441;-69
2023/12/28 11:33:10;;;;;;;18.83;8.00;;;;;;;8.18;55.41;96497.88;4967815;28;20436;-68